TimeAKDT,TemperatureF,Dew PointF,Humidity,Sea Level PressureIn,VisibilityMPH,Wind Direction,Wind SpeedMPH,Gust SpeedMPH,PrecipitationIn,Events,Conditions,WindDirDegrees,DateUTC
12:16 AM,39.2,39.2,100,29.33,4.0,NE,11.5,-,N/A,,Overcast,50,2013-06-23 08:16:00
12:53 AM,39.9,39.0,97,29.36,5.0,NE,11.5,-,N/A,,Overcast,50,2013-06-23 08:53:00
1:01 AM,39.2,39.2,100,29.35,5.0,NE,12.7,-,N/A,,Overcast,40,2013-06-23 09:01:00
1:20 AM,39.2,39.2,100,29.37,5.0,NNE,9.2,-,N/A,,Overcast,30,2013-06-23 09:20:00
1:53 AM,39.9,39.9,100,29.39,6.0,NE,12.7,-,N/A,,Overcast,40,2013-06-23 09:53:00
2:14 AM,39.2,39.2,100,29.40,7.0,NE,11.5,-,N/A,,Overcast,40,2013-06-23 10:14:00
2:27 AM,39.2,39.2,100,29.40,6.0,NE,13.8,-,N/A,,Overcast,40,2013-06-23 10:27:00
2:53 AM,39.9,39.9,100,29.41,7.0,NNE,6.9,-,N/A,,Overcast,20,2013-06-23 10:53:00
3:53 AM,39.0,39.0,100,29.43,9.0,NNE,11.5,-,N/A,,Overcast,20,2013-06-23 11:53:00
4:04 AM,39.2,39.2,100,29.43,9.0,North,10.4,-,N/A,,Overcast,10,2013-06-23 12:04:00
4:33 AM,39.2,37.4,93,29.43,9.0,North,9.2,-,N/A,,Overcast,10,2013-06-23 12:33:00
4:53 AM,37.9,37.9,100,29.45,8.0,North,9.2,-,N/A,,Overcast,360,2013-06-23 12:53:00
5:29 AM,37.4,37.4,100,29.46,8.0,North,6.9,-,N/A,,Overcast,10,2013-06-23 13:29:00
5:53 AM,39.0,37.9,96,29.48,8.0,North,6.9,-,N/A,,Overcast,360,2013-06-23 13:53:00
6:11 AM,39.2,37.4,93,29.49,9.0,North,8.1,-,N/A,,Overcast,350,2013-06-23 14:11:00
6:51 AM,39.2,37.4,93,29.49,7.0,North,5.8,-,N/A,,Overcast,360,2013-06-23 14:51:00
6:53 AM,39.0,37.9,96,29.50,7.0,North,6.9,-,N/A,,Overcast,350,2013-06-23 14:53:00
7:14 AM,39.2,39.2,100,29.51,7.0,NNW,11.5,-,N/A,,Overcast,340,2013-06-23 15:14:00
7:48 AM,39.2,39.2,100,29.51,6.0,North,11.5,-,N/A,,Overcast,350,2013-06-23 15:48:00
7:53 AM,39.9,39.0,97,29.51,6.0,North,11.5,-,N/A,,Overcast,350,2013-06-23 15:53:00
8:53 AM,39.9,39.0,97,29.54,6.0,NNW,13.8,-,N/A,,Overcast,340,2013-06-23 16:53:00
9:12 AM,39.2,39.2,100,29.53,6.0,NNW,12.7,-,N/A,,Overcast,340,2013-06-23 17:12:00
9:31 AM,39.2,39.2,100,29.54,6.0,North,10.4,-,N/A,,Overcast,350,2013-06-23 17:31:00
9:42 AM,39.2,39.2,100,29.53,6.0,North,11.5,-,N/A,,Overcast,360,2013-06-23 17:42:00
9:53 AM,39.9,39.0,97,29.55,6.0,North,10.4,-,N/A,,Overcast,360,2013-06-23 17:53:00
10:19 AM,39.2,39.2,100,29.56,6.0,North,10.4,-,N/A,,Overcast,360,2013-06-23 18:19:00
10:53 AM,41.0,39.9,96,29.57,6.0,North,8.1,-,N/A,,Overcast,360,2013-06-23 18:53:00
11:12 AM,42.8,39.2,87,29.57,7.0,North,11.5,-,N/A,,Overcast,360,2013-06-23 19:12:00
11:53 AM,42.1,41.0,96,29.59,8.0,North,9.2,-,N/A,,Overcast,350,2013-06-23 19:53:00
12:53 PM,42.1,41.0,96,29.61,8.0,North,11.5,-,N/A,,Overcast,360,2013-06-23 20:53:00
1:07 PM,41.0,41.0,100,29.61,1.8,NNW,11.5,-,N/A,,Overcast,340,2013-06-23 21:07:00
1:21 PM,42.8,41.0,93,29.61,3.0,North,10.4,-,N/A,,Overcast,350,2013-06-23 21:21:00
1:53 PM,43.0,41.0,93,29.63,9.0,North,10.4,-,N/A,,Overcast,360,2013-06-23 21:53:00
2:28 PM,44.6,41.0,87,29.62,10.0,North,12.7,-,N/A,,Overcast,10,2013-06-23 22:28:00
2:38 PM,46.4,42.8,87,29.63,10.0,North,12.7,-,N/A,,Overcast,10,2013-06-23 22:38:00
2:53 PM,46.0,42.1,86,29.65,10.0,North,16.1,-,N/A,,Overcast,10,2013-06-23 22:53:00
3:33 PM,44.6,42.8,93,29.65,10.0,NNE,13.8,-,N/A,,Overcast,20,2013-06-23 23:33:00
3:53 PM,46.9,42.1,83,29.66,10.0,NNE,13.8,-,N/A,,Mostly Cloudy,30,2013-06-23 23:53:00
4:28 PM,48.2,42.8,82,29.66,10.0,North,10.4,-,N/A,,Overcast,10,2013-06-24 00:28:00
4:53 PM,46.0,42.1,86,29.66,10.0,NNE,11.5,-,N/A,,Overcast,20,2013-06-24 00:53:00
5:53 PM,46.0,42.1,86,29.68,10.0,NE,9.2,-,N/A,,Overcast,40,2013-06-24 01:53:00
6:00 PM,46.4,42.8,87,29.68,10.0,NNE,11.5,-,N/A,,Overcast,20,2013-06-24 02:00:00
6:53 PM,44.1,42.1,93,29.69,9.0,NNE,10.4,-,N/A,,Overcast,20,2013-06-24 02:53:00
7:53 PM,44.1,39.9,85,29.72,10.0,NNE,9.2,-,N/A,,Overcast,30,2013-06-24 03:53:00
8:53 PM,43.0,39.9,89,29.72,10.0,North,11.5,-,N/A,,Overcast,10,2013-06-24 04:53:00
9:38 PM,41.0,39.2,93,29.74,4.0,North,11.5,-,N/A,,Overcast,10,2013-06-24 05:38:00
9:48 PM,41.0,39.2,93,29.74,2.5,North,11.5,-,N/A,,Overcast,10,2013-06-24 05:48:00
9:53 PM,41.0,39.9,96,29.74,2.5,NNE,11.5,-,N/A,,Overcast,20,2013-06-24 05:53:00
10:07 PM,39.2,39.2,100,29.74,1.8,North,12.7,-,N/A,,Overcast,10,2013-06-24 06:07:00
10:14 PM,39.2,39.2,100,29.75,0.5,North,11.5,-,N/A,Fog,Fog,10,2013-06-24 06:14:00
10:53 PM,39.0,39.0,100,29.77,0.5,North,11.5,-,N/A,Fog,Fog,10,2013-06-24 06:53:00
11:53 PM,39.0,39.0,100,29.78,0.2,NNE,11.5,-,N/A,Fog,Fog,20,2013-06-24 07:53:00